Ana Sayfa
METAR-TAF:

METAR-TAF

Havaalanları :

Chevak, Alaska, Amerika Birleşik Devletleri

Enlem: 61-32-27N, Boylam: 165-36-03W, yükseklik: 23 m

Güncel hava durumu gözlemi

Rapor saat 06:56 UTC de 51 dakika önce yapıldı.
Rüzgar kuzeydan 16 kt ve 19 kt'a kadar ani rüzgarlar
Sıcaklık 1°C
Nem 80%
Basınç 1015 hPa
Görüş mesafesi: 16.1 km
1300 ft yükseklikte az bulutlu

METAR: PAVA 270656Z AUTO 35016G19KT 10SM FEW013 01/M02 A2996 RMK AO2 SLP149 T00061017 FZRANO PNO $

Saat: 23:47 (07:47 UTC)


TAF: eksik

4.000'den fazla havaalanı için hava durumu gözlemleri ve tahminleri (METAR ve TAF raporları).

Kullanılabilir istasyonlar harita üzerinde sarı ve kırmızı noktalarla gösterilir.

İstasyonun adını görmek için fareyi noktanın üzerinde gezdirin.

Sonrasında hava gözlem ve tahminlerini görmek için tıklayın.

Haritayı değiştirmek için: yaklaştırmak için siyah artı işaretli yeşil düğmeye ve uzaklaştırmak için de eksi işaretli düğmeye hızla tıklayın; bitişik haritalar için yeşil okları kullanın.


METAR-TAF: